createdAt,value
2023-03-28T00:02:41.623Z,99386.06
2023-03-28T00:07:44.561Z,99424.53
2023-03-28T00:12:47.150Z,99415.25
2023-03-28T00:17:52.810Z,99432.41
2023-03-28T00:22:55.288Z,99419.00
2023-03-28T00:27:58.440Z,99428.50
2023-03-28T00:33:00.737Z,99440.22
2023-03-28T00:38:04.715Z,99429.09
2023-03-28T00:43:06.966Z,99413.16
2023-03-28T00:48:15.574Z,99425.13
2023-03-28T00:53:21.731Z,99439.06
2023-03-28T00:58:28.378Z,99397.56
2023-03-28T01:03:36.024Z,99419.00
2023-03-28T01:08:44.507Z,99423.22
2023-03-28T01:13:50.743Z,99441.28
2023-03-28T01:18:53.476Z,99450.28
2023-03-28T01:24:23.718Z,99468.03
2023-03-28T01:30:03.056Z,99479.16
2023-03-28T01:35:36.926Z,99488.16
2023-03-28T01:40:52.767Z,99498.97
2023-03-28T01:46:22.596Z,99502.19
2023-03-28T01:51:36.698Z,99496.34
2023-03-28T01:57:02.615Z,99490.97
2023-03-28T02:02:08.438Z,99514.03
2023-03-28T02:07:11.558Z,99506.22
2023-03-28T02:12:25.355Z,99527.69
2023-03-28T02:17:29.798Z,99507.66
2023-03-28T02:22:38.904Z,99514.59
2023-03-28T02:27:43.656Z,99527.88
2023-03-28T02:32:50.854Z,99503.16
2023-03-28T02:38:15.328Z,99533.53
2023-03-28T02:43:46.726Z,99545.50
2023-03-28T02:49:37.521Z,99549.75
2023-03-28T02:55:02.291Z,99574.69
2023-03-28T03:00:12.851Z,99567.09
2023-03-28T03:05:16.024Z,99559.66
2023-03-28T03:10:19.342Z,99585.03
2023-03-28T03:15:21.496Z,99563.50
2023-03-28T03:20:23.802Z,99597.25
2023-03-28T03:25:26.851Z,99598.13
2023-03-28T03:30:29.173Z,99604.13
2023-03-28T03:35:34.623Z,99604.50
2023-03-28T03:40:36.733Z,99613.47
2023-03-28T03:45:40.838Z,99611.19
2023-03-28T03:50:42.958Z,99641.50
2023-03-28T03:55:45.220Z,99644.84
2023-03-28T04:00:49.192Z,99630.84
2023-03-28T04:05:53.062Z,99660.09
2023-03-28T04:10:55.173Z,99652.53
2023-03-28T04:15:57.435Z,99654.66
2023-03-28T04:21:02.013Z,99670.50
2023-03-28T04:26:04.254Z,99666.75
2023-03-28T04:31:07.731Z,99655.66
2023-03-28T04:36:11.649Z,99665.94
2023-03-28T04:41:17.106Z,99655.66
2023-03-28T04:46:19.297Z,99688.31
2023-03-28T04:51:21.924Z,99694.59
2023-03-28T04:56:24.133Z,99703.00
2023-03-28T05:01:27.941Z,99697.16
2023-03-28T05:06:30.275Z,99724.41
2023-03-28T05:11:34.475Z,99730.66
2023-03-28T05:16:36.832Z,99734.53
2023-03-28T05:21:40.976Z,99743.19
2023-03-28T05:26:43.086Z,99744.69
2023-03-28T05:31:45.187Z,99740.78
2023-03-28T05:36:47.372Z,99758.06
2023-03-28T05:41:49.797Z,99763.75
2023-03-28T05:46:51.978Z,99781.56
2023-03-28T05:51:54.201Z,99773.16
2023-03-28T05:56:56.408Z,99793.41
2023-03-28T06:01:59.082Z,99825.25
2023-03-28T06:07:03.193Z,99795.09
2023-03-28T06:12:06.324Z,99842.25
2023-03-28T06:17:08.590Z,99828.00
2023-03-28T06:22:10.820Z,99857.13
2023-03-28T06:27:13.020Z,99835.13
2023-03-28T06:32:15.921Z,99842.63
2023-03-28T06:37:18.372Z,99866.63
2023-03-28T06:42:21.510Z,99841.25
2023-03-28T06:47:23.770Z,99867.81
2023-03-28T06:52:26.140Z,99865.78
2023-03-28T06:57:28.214Z,99861.53
2023-03-28T07:02:30.409Z,99862.44
2023-03-28T07:07:32.590Z,99873.13
2023-03-28T07:12:34.747Z,99874.41
2023-03-28T07:17:37.158Z,99886.47
2023-03-28T07:22:39.608Z,99895.63
2023-03-28T07:27:42.013Z,99903.50
2023-03-28T07:32:53.819Z,99906.53
2023-03-28T07:37:59.489Z,99873.50
2023-03-28T07:43:01.857Z,99902.28
2023-03-28T07:48:05.298Z,99909.44
2023-03-28T07:53:07.673Z,99901.63
2023-03-28T07:58:10.239Z,99901.06
2023-03-28T08:03:13.757Z,99924.88
2023-03-28T08:08:16.101Z,99911.16
2023-03-28T08:13:18.912Z,99894.00
2023-03-28T08:18:25.444Z,99911.06
2023-03-28T08:23:28.945Z,99920.59
2023-03-28T08:28:35.684Z,99920.31
2023-03-28T08:33:38.215Z,99907.56
2023-03-28T08:38:44.002Z,99893.09
2023-03-28T08:43:59.728Z,99891.28
2023-03-28T08:49:07.832Z,99890.19
2023-03-28T08:54:29.200Z,99893.81
2023-03-28T09:00:02.453Z,99914.56
2023-03-28T09:05:22.040Z,99909.09
2023-03-28T09:10:43.177Z,99899.13
2023-03-28T09:15:51.208Z,99914.28
2023-03-28T09:21:08.547Z,99892.00
2023-03-28T09:26:17.616Z,99899.13
2023-03-28T09:31:27.291Z,99880.28
2023-03-28T09:36:45.637Z,99897.34
2023-03-28T09:41:54.807Z,99895.63
2023-03-28T09:46:57.829Z,99905.72
2023-03-28T09:52:00.189Z,99901.59
2023-03-28T09:57:04.826Z,99930.44
2023-03-28T10:02:27.185Z,99929.22
2023-03-28T10:07:44.211Z,99956.66
2023-03-28T10:12:49.333Z,99977.09
2023-03-28T10:17:51.606Z,99979.19
2023-03-28T10:22:56.353Z,99980.22
2023-03-28T10:28:00.950Z,99956.28
2023-03-28T10:33:18.022Z,99985.03
2023-03-28T10:38:23.267Z,99975.72
2023-03-28T10:43:32.984Z,99993.78
2023-03-28T10:48:36.813Z,99986.38
2023-03-28T10:54:06.202Z,99990.53
2023-03-28T10:59:17.560Z,99989.28
2023-03-28T11:04:28.560Z,100006.91
2023-03-28T11:09:36.860Z,100005.47
2023-03-28T11:15:11.363Z,100027.47
2023-03-28T11:20:28.631Z,100021.75
2023-03-28T11:26:08.865Z,100032.19
2023-03-28T11:31:19.367Z,100024.94
2023-03-28T11:36:50.897Z,100033.47
2023-03-28T11:41:54.300Z,100024.72
2023-03-28T11:47:10.833Z,100032.69
2023-03-28T11:52:26.167Z,100042.44
2023-03-28T11:57:36.048Z,99993.31
2023-03-28T12:02:41.772Z,100046.28
2023-03-28T12:07:53.658Z,100031.63
2023-03-28T12:13:15.635Z,100047.59
2023-03-28T12:18:37.012Z,100037.16
2023-03-28T12:23:59.792Z,100040.28
2023-03-28T12:29:17.803Z,100017.94
2023-03-28T12:34:38.688Z,100040.09
2023-03-28T12:39:50.602Z,100036.94
2023-03-28T12:45:44.540Z,100038.13
2023-03-28T12:50:59.292Z,100034.69
2023-03-28T12:56:03.740Z,100027.13
2023-03-28T13:01:08.891Z,100059.38
2023-03-28T13:06:13.758Z,100056.84
2023-03-28T13:11:33.750Z,100040.69
2023-03-28T13:16:57.099Z,100034.34
2023-03-28T13:22:00.589Z,100027.38
2023-03-28T13:27:14.413Z,100058.22
2023-03-28T13:32:23.306Z,100062.25
2023-03-28T13:37:47.230Z,100079.53
2023-03-28T13:42:59.697Z,100081.75
2023-03-28T13:48:12.706Z,100051.50
2023-03-28T13:53:16.089Z,100100.06
2023-03-28T13:58:19.151Z,100081.19
2023-03-28T14:03:21.449Z,100088.59
2023-03-28T14:08:25.865Z,100115.53
2023-03-28T14:13:31.314Z,100104.31
2023-03-28T14:18:44.051Z,100126.59
2023-03-28T14:23:58.059Z,100124.50
2023-03-28T14:29:11.876Z,100142.41
2023-03-28T14:34:14.032Z,100163.19
2023-03-28T14:39:18.754Z,100160.19
2023-03-28T14:44:21.510Z,100144.03
2023-03-28T14:49:26.506Z,100174.47
2023-03-28T14:54:33.789Z,100195.81
2023-03-28T14:59:45.344Z,100163.50
2023-03-28T15:04:48.329Z,100180.47
2023-03-28T15:10:27.649Z,100206.28
2023-03-28T15:15:52.767Z,100203.16
2023-03-28T15:20:59.723Z,100236.13
2023-03-28T15:26:13.274Z,100226.00
2023-03-28T15:31:17.402Z,100244.63
2023-03-28T15:36:24.805Z,100246.31
2023-03-28T15:41:49.373Z,100261.00
2023-03-28T15:46:54.122Z,100263.69
2023-03-28T15:52:05.773Z,100298.88
2023-03-28T15:57:12.733Z,100315.25
2023-03-28T16:02:24.110Z,100320.94
2023-03-28T16:07:27.617Z,100322.78
2023-03-28T16:12:29.815Z,100322.66
2023-03-28T16:17:33.099Z,100348.03
2023-03-28T16:22:35.272Z,100356.84
2023-03-28T16:27:38.068Z,100372.16
2023-03-28T16:32:40.336Z,100388.19
2023-03-28T16:37:42.616Z,100407.81
2023-03-28T16:42:44.852Z,100430.34
2023-03-28T16:47:50.007Z,100399.56
2023-03-28T16:52:52.366Z,100454.75
2023-03-28T16:57:54.615Z,100437.28
2023-03-28T17:02:57.037Z,100463.78
2023-03-28T17:07:59.974Z,100475.66
2023-03-28T17:13:04.883Z,100460.00
2023-03-28T17:18:07.078Z,100503.75
2023-03-28T17:23:09.448Z,100538.88
2023-03-28T17:28:11.657Z,100540.19
2023-03-28T17:33:13.736Z,100557.34
2023-03-28T17:38:16.207Z,100563.91
2023-03-28T17:43:18.460Z,100578.66
2023-03-28T17:48:20.666Z,100614.84
2023-03-28T17:53:22.923Z,100614.28
2023-03-28T17:58:25.565Z,100651.94
2023-03-28T18:03:28.269Z,100660.19
2023-03-28T18:08:30.799Z,100681.19
2023-03-28T18:13:33.669Z,100690.06
2023-03-28T18:18:35.849Z,100696.25
2023-03-28T18:23:38.279Z,100684.44
2023-03-28T18:28:40.715Z,100725.31
2023-03-28T18:33:44.500Z,100742.13
2023-03-28T18:38:48.083Z,100738.53
2023-03-28T18:43:50.316Z,100760.06
2023-03-28T18:48:54.988Z,100784.94
2023-03-28T18:53:57.503Z,100776.69
2023-03-28T18:58:59.682Z,100798.59
2023-03-28T19:04:02.099Z,100805.94
2023-03-28T19:09:05.638Z,100832.00
2023-03-28T19:14:07.890Z,100822.59
2023-03-28T19:19:10.359Z,100839.56
2023-03-28T19:24:12.690Z,100843.59
2023-03-28T19:29:14.912Z,100842.25
2023-03-28T19:34:18.752Z,100872.72
2023-03-28T19:39:21.024Z,100907.38
2023-03-28T19:44:23.253Z,100886.28
2023-03-28T19:49:25.705Z,100923.28
2023-03-28T19:54:27.854Z,100919.06
2023-03-28T19:59:30.152Z,100931.94
2023-03-28T20:04:32.350Z,100929.09
2023-03-28T20:09:35.622Z,100944.00
2023-03-28T20:14:38.043Z,100968.78
2023-03-28T20:19:40.456Z,100957.91
2023-03-28T20:24:42.842Z,100979.03
2023-03-28T20:29:46.290Z,100981.44
2023-03-28T20:34:48.541Z,100974.41
2023-03-28T20:39:52.365Z,100986.03
2023-03-28T20:44:54.456Z,101005.84
2023-03-28T20:49:59.452Z,100982.19
2023-03-28T20:55:01.984Z,100980.50
2023-03-28T21:00:07.478Z,100975.25
2023-03-28T21:05:09.822Z,100990.53
2023-03-28T21:10:12.375Z,100994.88
2023-03-28T21:15:15.717Z,101027.13
2023-03-28T21:20:18.976Z,101023.84
2023-03-28T21:25:21.455Z,101050.28
2023-03-28T21:30:23.814Z,101065.28
2023-03-28T21:35:28.806Z,101087.28
2023-03-28T21:40:31.765Z,101077.03
2023-03-28T21:45:34.010Z,101074.88
2023-03-28T21:50:39.174Z,101070.44
2023-03-28T21:55:42.313Z,101092.94
2023-03-28T22:00:44.492Z,101093.88
2023-03-28T22:05:47.073Z,101103.97
2023-03-28T22:10:53.205Z,101104.81
2023-03-28T22:15:58.865Z,101128.31
2023-03-28T22:21:02.947Z,101110.19
2023-03-28T22:26:07.698Z,101139.78
2023-03-28T22:31:10.323Z,101135.69
2023-03-28T22:36:12.705Z,101140.66
2023-03-28T22:41:15.156Z,101127.31
2023-03-28T22:46:18.542Z,101157.81
2023-03-28T22:51:25.390Z,101191.88
2023-03-28T22:56:27.739Z,101176.41
2023-03-28T23:01:30.182Z,101168.59
2023-03-28T23:06:35.465Z,101177.88
2023-03-28T23:11:37.606Z,101183.44
2023-03-28T23:16:39.946Z,101180.75
2023-03-28T23:21:43.257Z,101212.69
2023-03-28T23:26:45.387Z,101177.63
2023-03-28T23:31:47.598Z,101235.13
2023-03-28T23:36:52.604Z,101222.91
2023-03-28T23:41:54.713Z,101242.19
2023-03-28T23:46:57.952Z,101215.88
2023-03-28T23:52:00.217Z,101248.97
2023-03-28T23:57:02.464Z,101273.66
